Terminal Aerodrome Forecast
Issued by NWS Sterling, VA

Home | Current Version | Previous Version | Text Only | Print | Product List | Glossary On
Versions: 1 2 3 4 5 6 7 8 9 10 11 12 13 14 15 16 17
102
FTUS41 KLWX 261127
TAFMRB
TAF
KMRB 261127Z 2612/2712 00000KT P6SM OVC100
     FM261800 20005KT P6SM -SHRA VCTS BKN050CB
     FM270000 19004KT P6SM SCT050
     FM270600 VRB03KT 3SM BR SCT090=

USA.gov is the U.S. government's official web portal to all federal, state and local government web resources and services.